sensor_id;sensor_type;location;lat;lon;timestamp;pressure;altitude;pressure_sealevel;temperature;humidity
58385;BME280;44185;47.844;8.966;2023-09-19T00:01:28;95985.69;;;14.31;100.00
58385;BME280;44185;47.844;8.966;2023-09-19T00:03:55;95989.53;;;14.37;100.00
58385;BME280;44185;47.844;8.966;2023-09-19T00:06:21;95988.22;;;14.41;100.00
58385;BME280;44185;47.844;8.966;2023-09-19T00:08:46;95987.72;;;14.45;100.00
58385;BME280;44185;47.844;8.966;2023-09-19T00:11:12;95994.69;;;14.38;100.00
58385;BME280;44185;47.844;8.966;2023-09-19T00:13:37;95989.22;;;14.40;100.00
58385;BME280;44185;47.844;8.966;2023-09-19T00:16:08;95993.66;;;14.31;100.00
58385;BME280;44185;47.844;8.966;2023-09-19T00:18:34;96001.84;;;14.38;100.00
58385;BME280;44185;47.844;8.966;2023-09-19T00:21:01;95992.84;;;14.39;100.00
58385;BME280;44185;47.844;8.966;2023-09-19T00:23:26;95999.13;;;14.21;100.00
58385;BME280;44185;47.844;8.966;2023-09-19T00:25:52;95993.97;;;14.19;100.00
58385;BME280;44185;47.844;8.966;2023-09-19T00:28:17;95999.16;;;14.29;100.00
58385;BME280;44185;47.844;8.966;2023-09-19T00:30:43;96002.63;;;14.21;100.00
58385;BME280;44185;47.844;8.966;2023-09-19T00:33:08;96007.47;;;14.26;100.00
58385;BME280;44185;47.844;8.966;2023-09-19T00:35:34;96003.31;;;14.32;100.00
58385;BME280;44185;47.844;8.966;2023-09-19T00:38:01;96004.31;;;14.22;100.00
58385;BME280;44185;47.844;8.966;2023-09-19T00:40:26;96005.63;;;14.27;100.00
58385;BME280;44185;47.844;8.966;2023-09-19T00:42:57;96003.63;;;14.20;100.00
58385;BME280;44185;47.844;8.966;2023-09-19T00:45:23;96007.78;;;14.23;100.00
58385;BME280;44185;47.844;8.966;2023-09-19T00:47:49;95995.13;;;14.17;100.00
58385;BME280;44185;47.844;8.966;2023-09-19T00:50:17;96001.63;;;14.14;100.00
58385;BME280;44185;47.844;8.966;2023-09-19T00:52:43;96005.28;;;14.21;100.00
58385;BME280;44185;47.844;8.966;2023-09-19T00:55:11;96003.47;;;14.22;100.00
58385;BME280;44185;47.844;8.966;2023-09-19T00:57:38;96003.16;;;14.25;100.00
58385;BME280;44185;47.844;8.966;2023-09-19T01:00:05;95994.31;;;14.25;100.00
58385;BME280;44185;47.844;8.966;2023-09-19T01:02:31;96001.50;;;14.32;100.00
58385;BME280;44185;47.844;8.966;2023-09-19T01:04:57;96009.00;;;14.37;100.00
58385;BME280;44185;47.844;8.966;2023-09-19T01:07:23;96016.31;;;14.35;100.00
58385;BME280;44185;47.844;8.966;2023-09-19T01:09:48;96017.16;;;14.36;100.00
58385;BME280;44185;47.844;8.966;2023-09-19T01:12:19;96025.50;;;14.41;100.00
58385;BME280;44185;47.844;8.966;2023-09-19T01:14:55;96025.94;;;14.36;100.00
58385;BME280;44185;47.844;8.966;2023-09-19T01:17:25;96025.94;;;14.36;100.00
58385;BME280;44185;47.844;8.966;2023-09-19T01:20:11;96030.63;;;14.42;100.00
58385;BME280;44185;47.844;8.966;2023-09-19T01:22:48;96036.66;;;14.53;100.00
58385;BME280;44185;47.844;8.966;2023-09-19T01:25:33;96043.81;;;14.52;100.00
58385;BME280;44185;47.844;8.966;2023-09-19T01:28:20;96044.13;;;14.49;100.00
58385;BME280;44185;47.844;8.966;2023-09-19T01:30:51;96042.47;;;14.48;100.00
58385;BME280;44185;47.844;8.966;2023-09-19T01:33:17;96036.97;;;14.50;100.00
58385;BME280;44185;47.844;8.966;2023-09-19T01:35:42;96034.16;;;14.51;100.00
58385;BME280;44185;47.844;8.966;2023-09-19T01:38:08;96027.34;;;14.49;100.00
58385;BME280;44185;47.844;8.966;2023-09-19T01:40:37;96033.81;;;14.54;100.00
58385;BME280;44185;47.844;8.966;2023-09-19T01:43:09;96038.00;;;14.49;100.00
58385;BME280;44185;47.844;8.966;2023-09-19T01:45:44;96025.34;;;14.51;100.00
58385;BME280;44185;47.844;8.966;2023-09-19T01:48:20;96030.66;;;14.51;100.00
58385;BME280;44185;47.844;8.966;2023-09-19T01:50:55;96021.19;;;14.48;100.00
58385;BME280;44185;47.844;8.966;2023-09-19T01:53:27;96025.34;;;14.51;100.00
58385;BME280;44185;47.844;8.966;2023-09-19T01:55:53;96029.31;;;14.46;100.00
58385;BME280;44185;47.844;8.966;2023-09-19T01:58:22;96035.16;;;14.50;100.00
58385;BME280;44185;47.844;8.966;2023-09-19T02:00:52;96045.47;;;14.53;100.00
58385;BME280;44185;47.844;8.966;2023-09-19T02:03:21;96041.47;;;14.49;100.00
58385;BME280;44185;47.844;8.966;2023-09-19T02:05:49;96048.63;;;14.49;100.00
58385;BME280;44185;47.844;8.966;2023-09-19T02:08:16;96057.94;;;14.44;100.00
58385;BME280;44185;47.844;8.966;2023-09-19T02:10:42;96051.28;;;14.40;100.00
58385;BME280;44185;47.844;8.966;2023-09-19T02:13:07;96044.59;;;14.36;100.00
58385;BME280;44185;47.844;8.966;2023-09-19T02:15:33;96051.75;;;14.36;100.00
58385;BME280;44185;47.844;8.966;2023-09-19T02:17:58;96045.91;;;14.32;100.00
58385;BME280;44185;47.844;8.966;2023-09-19T02:20:25;96051.91;;;14.34;100.00
58385;BME280;44185;47.844;8.966;2023-09-19T02:22:50;96055.75;;;14.40;100.00
58385;BME280;44185;47.844;8.966;2023-09-19T02:25:16;96063.56;;;14.41;100.00
58385;BME280;44185;47.844;8.966;2023-09-19T02:27:41;96064.25;;;14.52;100.00
58385;BME280;44185;47.844;8.966;2023-09-19T02:30:07;96072.94;;;14.54;100.00
58385;BME280;44185;47.844;8.966;2023-09-19T02:32:33;96065.31;;;14.59;100.00
58385;BME280;44185;47.844;8.966;2023-09-19T02:34:58;96080.78;;;14.64;100.00
58385;BME280;44185;47.844;8.966;2023-09-19T02:37:25;96077.63;;;14.68;100.00
58385;BME280;44185;47.844;8.966;2023-09-19T02:39:51;96076.78;;;14.68;100.00
58385;BME280;44185;47.844;8.966;2023-09-19T02:42:16;96070.47;;;14.69;100.00
58385;BME280;44185;47.844;8.966;2023-09-19T02:44:42;96079.97;;;14.72;100.00
58385;BME280;44185;47.844;8.966;2023-09-19T02:47:07;96085.13;;;14.73;100.00
58385;BME280;44185;47.844;8.966;2023-09-19T02:49:33;96082.47;;;14.73;100.00
58385;BME280;44185;47.844;8.966;2023-09-19T02:51:58;96074.34;;;14.75;100.00
58385;BME280;44185;47.844;8.966;2023-09-19T02:54:25;96076.34;;;14.73;100.00
58385;BME280;44185;47.844;8.966;2023-09-19T02:56:51;96074.66;;;14.72;100.00
58385;BME280;44185;47.844;8.966;2023-09-19T02:59:16;96073.47;;;14.66;100.00
58385;BME280;44185;47.844;8.966;2023-09-19T03:01:43;96078.31;;;14.71;100.00
58385;BME280;44185;47.844;8.966;2023-09-19T03:04:08;96068.31;;;14.64;100.00
58385;BME280;44185;47.844;8.966;2023-09-19T03:06:34;96060.34;;;14.73;100.00
58385;BME280;44185;47.844;8.966;2023-09-19T03:08:59;96066.34;;;14.75;100.00
58385;BME280;44185;47.844;8.966;2023-09-19T03:11:26;96068.00;;;14.76;100.00
58385;BME280;44185;47.844;8.966;2023-09-19T03:13:52;96074.00;;;14.78;100.00
58385;BME280;44185;47.844;8.966;2023-09-19T03:16:18;96078.66;;;14.76;100.00
58385;BME280;44185;47.844;8.966;2023-09-19T03:18:43;96072.50;;;14.75;100.00
58385;BME280;44185;47.844;8.966;2023-09-19T03:21:09;96069.50;;;14.78;100.00
58385;BME280;44185;47.844;8.966;2023-09-19T03:23:34;96068.34;;;14.81;100.00
58385;BME280;44185;47.844;8.966;2023-09-19T03:26:00;96080.16;;;14.78;100.00
58385;BME280;44185;47.844;8.966;2023-09-19T03:28:27;96074.47;;;14.73;100.00
58385;BME280;44185;47.844;8.966;2023-09-19T03:30:59;96079.97;;;14.72;100.00
58385;BME280;44185;47.844;8.966;2023-09-19T03:33:25;96078.31;;;14.71;100.00
58385;BME280;44185;47.844;8.966;2023-09-19T03:35:52;96083.63;;;14.71;100.00
58385;BME280;44185;47.844;8.966;2023-09-19T03:38:18;96080.97;;;14.71;100.00
58385;BME280;44185;47.844;8.966;2023-09-19T03:40:44;96073.47;;;14.66;100.00
58385;BME280;44185;47.844;8.966;2023-09-19T03:43:09;96074.13;;;14.60;100.00
58385;BME280;44185;47.844;8.966;2023-09-19T03:45:36;96073.13;;;14.61;100.00
58385;BME280;44185;47.844;8.966;2023-09-19T03:48:01;96074.94;;;14.60;100.00
58385;BME280;44185;47.844;8.966;2023-09-19T03:50:27;96077.16;;;14.65;100.00
58385;BME280;44185;47.844;8.966;2023-09-19T03:52:56;96083.28;;;14.57;100.00
58385;BME280;44185;47.844;8.966;2023-09-19T03:55:21;96075.44;;;14.55;100.00
58385;BME280;44185;47.844;8.966;2023-09-19T03:57:48;96073.78;;;14.63;100.00
58385;BME280;44185;47.844;8.966;2023-09-19T04:00:13;96075.50;;;14.72;100.00
58385;BME280;44185;47.844;8.966;2023-09-19T04:02:40;96072.84;;;14.72;100.00
58385;BME280;44185;47.844;8.966;2023-09-19T04:05:06;96072.16;;;14.78;100.00
58385;BME280;44185;47.844;8.966;2023-09-19T04:07:32;96076.31;;;14.81;100.00
58385;BME280;44185;47.844;8.966;2023-09-19T04:09:57;96077.16;;;14.82;100.00
58385;BME280;44185;47.844;8.966;2023-09-19T04:12:22;96071.84;;;14.82;100.00
58385;BME280;44185;47.844;8.966;2023-09-19T04:14:48;96068.84;;;14.76;100.00
58385;BME280;44185;47.844;8.966;2023-09-19T04:17:13;96061.50;;;14.70;100.00
58385;BME280;44185;47.844;8.966;2023-09-19T04:19:40;96073.84;;;14.79;100.00
58385;BME280;44185;47.844;8.966;2023-09-19T04:22:06;96083.16;;;14.75;100.00
58385;BME280;44185;47.844;8.966;2023-09-19T04:24:31;96079.00;;;14.73;100.00
58385;BME280;44185;47.844;8.966;2023-09-19T04:26:56;96084.50;;;14.79;100.00
58385;BME280;44185;47.844;8.966;2023-09-19T04:29:22;96085.34;;;14.80;100.00
58385;BME280;44185;47.844;8.966;2023-09-19T04:31:48;96084.47;;;14.71;100.00
58385;BME280;44185;47.844;8.966;2023-09-19T04:34:13;96088.31;;;14.77;100.00
58385;BME280;44185;47.844;8.966;2023-09-19T04:36:40;96086.97;;;14.73;100.00
58385;BME280;44185;47.844;8.966;2023-09-19T04:39:05;96086.16;;;14.72;100.00
58385;BME280;44185;47.844;8.966;2023-09-19T04:41:31;96102.78;;;14.74;100.00
58385;BME280;44185;47.844;8.966;2023-09-19T04:43:56;96101.47;;;14.78;100.00
58385;BME280;44185;47.844;8.966;2023-09-19T04:46:22;96094.81;;;14.74;100.00
58385;BME280;44185;47.844;8.966;2023-09-19T04:48:48;96097.97;;;14.78;100.00
58385;BME280;44185;47.844;8.966;2023-09-19T04:51:13;96096.31;;;14.77;100.00
58385;BME280;44185;47.844;8.966;2023-09-19T04:53:40;96100.97;;;14.75;100.00
58385;BME280;44185;47.844;8.966;2023-09-19T04:56:05;96105.13;;;14.77;100.00
58385;BME280;44185;47.844;8.966;2023-09-19T04:58:31;96110.28;;;14.79;100.00
58385;BME280;44185;47.844;8.966;2023-09-19T05:00:56;96115.28;;;14.82;100.00
58385;BME280;44185;47.844;8.966;2023-09-19T05:03:22;96117.94;;;14.74;100.00
58385;BME280;44185;47.844;8.966;2023-09-19T05:05:48;96112.59;;;14.74;100.00
58385;BME280;44185;47.844;8.966;2023-09-19T05:08:14;96116.09;;;14.74;100.00
58385;BME280;44185;47.844;8.966;2023-09-19T05:10:40;96121.59;;;14.73;100.00
58385;BME280;44185;47.844;8.966;2023-09-19T05:13:06;96125.59;;;14.77;100.00
58385;BME280;44185;47.844;8.966;2023-09-19T05:15:32;96124.44;;;14.79;100.00
58385;BME280;44185;47.844;8.966;2023-09-19T05:17:57;96128.78;;;14.81;100.00
58385;BME280;44185;47.844;8.966;2023-09-19T05:20:23;96129.94;;;14.78;100.00
58385;BME280;44185;47.844;8.966;2023-09-19T05:22:48;96135.78;;;14.82;100.00
58385;BME280;44185;47.844;8.966;2023-09-19T05:25:14;96134.47;;;14.86;100.00
58385;BME280;44185;47.844;8.966;2023-09-19T05:27:40;96139.28;;;14.82;100.00
58385;BME280;44185;47.844;8.966;2023-09-19T05:30:06;96135.44;;;14.85;100.00
58385;BME280;44185;47.844;8.966;2023-09-19T05:32:32;96138.13;;;14.85;100.00
58385;BME280;44185;47.844;8.966;2023-09-19T05:34:57;96141.94;;;14.82;100.00
58385;BME280;44185;47.844;8.966;2023-09-19T05:37:23;96140.16;;;14.91;100.00
58385;BME280;44185;47.844;8.966;2023-09-19T05:39:48;96144.84;;;14.97;100.00
58385;BME280;44185;47.844;8.966;2023-09-19T05:42:13;96144.69;;;14.99;100.00
58385;BME280;44185;47.844;8.966;2023-09-19T05:44:40;96146.00;;;14.95;100.00
58385;BME280;44185;47.844;8.966;2023-09-19T05:47:06;96143.31;;;14.95;100.00
58385;BME280;44185;47.844;8.966;2023-09-19T05:49:31;96146.19;;;15.01;100.00
58385;BME280;44185;47.844;8.966;2023-09-19T05:51:56;96148.50;;;14.96;100.00
58385;BME280;44185;47.844;8.966;2023-09-19T05:54:22;96145.03;;;15.04;100.00
58385;BME280;44185;47.844;8.966;2023-09-19T05:56:48;96143.09;;;15.73;100.00
58385;BME280;44185;47.844;8.966;2023-09-19T05:59:13;96144.75;;;15.66;100.00
58385;BME280;44185;47.844;8.966;2023-09-19T06:01:40;96146.25;;;15.52;100.00
58385;BME280;44185;47.844;8.966;2023-09-19T06:04:05;96149.09;;;15.92;100.00
58385;BME280;44185;47.844;8.966;2023-09-19T06:06:31;96148.91;;;15.68;100.00
58385;BME280;44185;47.844;8.966;2023-09-19T06:08:56;96156.25;;;15.83;100.00
58385;BME280;44185;47.844;8.966;2023-09-19T06:11:22;96158.25;;;15.56;100.00
58385;BME280;44185;47.844;8.966;2023-09-19T06:13:48;96168.59;;;15.59;100.00
58385;BME280;44185;47.844;8.966;2023-09-19T06:16:13;96163.75;;;15.54;100.00
58385;BME280;44185;47.844;8.966;2023-09-19T06:18:40;96168.75;;;15.49;100.00
58385;BME280;44185;47.844;8.966;2023-09-19T06:21:06;96167.78;;;15.75;100.00
58385;BME280;44185;47.844;8.966;2023-09-19T06:23:31;96173.75;;;15.86;100.00
58385;BME280;44185;47.844;8.966;2023-09-19T06:25:57;96173.91;;;16.01;100.00
58385;BME280;44185;47.844;8.966;2023-09-19T06:28:22;96167.44;;;15.78;100.00
58385;BME280;44185;47.844;8.966;2023-09-19T06:30:48;96168.75;;;15.66;100.00
58385;BME280;44185;47.844;8.966;2023-09-19T06:33:13;96168.75;;;15.66;100.00
58385;BME280;44185;47.844;8.966;2023-09-19T06:35:40;96175.94;;;15.74;100.00
58385;BME280;44185;47.844;8.966;2023-09-19T06:38:06;96175.09;;;15.65;100.00
58385;BME280;44185;47.844;8.966;2023-09-19T06:40:31;96178.63;;;15.74;100.00
58385;BME280;44185;47.844;8.966;2023-09-19T06:42:58;96180.25;;;15.75;100.00
58385;BME280;44185;47.844;8.966;2023-09-19T06:45:24;96186.78;;;15.81;100.00
58385;BME280;44185;47.844;8.966;2023-09-19T06:47:51;96181.28;;;15.74;100.00
58385;BME280;44185;47.844;8.966;2023-09-19T06:50:16;96185.44;;;15.60;100.00
58385;BME280;44185;47.844;8.966;2023-09-19T06:52:44;96193.59;;;15.75;100.00
58385;BME280;44185;47.844;8.966;2023-09-19T06:55:10;96203.09;;;15.69;100.00
58385;BME280;44185;47.844;8.966;2023-09-19T06:57:35;96199.59;;;15.68;100.00
58385;BME280;44185;47.844;8.966;2023-09-19T07:00:01;96205.59;;;15.87;100.00
58385;BME280;44185;47.844;8.966;2023-09-19T07:02:26;96198.94;;;15.92;100.00
58385;BME280;44185;47.844;8.966;2023-09-19T07:04:51;96203.59;;;15.98;100.00
58385;BME280;44185;47.844;8.966;2023-09-19T07:07:17;96208.63;;;15.76;100.00
58385;BME280;44185;47.844;8.966;2023-09-19T07:09:44;96210.13;;;15.87;100.00
58385;BME280;44185;47.844;8.966;2023-09-19T07:12:09;96205.78;;;15.94;100.00
58385;BME280;44185;47.844;8.966;2023-09-19T07:14:35;96211.16;;;16.11;100.00
58385;BME280;44185;47.844;8.966;2023-09-19T07:17:00;96216.31;;;16.21;100.00
58385;BME280;44185;47.844;8.966;2023-09-19T07:19:25;96216.47;;;16.19;100.00
58385;BME280;44185;47.844;8.966;2023-09-19T07:21:51;96219.31;;;16.18;100.00
58385;BME280;44185;47.844;8.966;2023-09-19T07:24:16;96223.81;;;16.34;100.00
58385;BME280;44185;47.844;8.966;2023-09-19T07:26:45;96221.84;;;16.11;100.00
58385;BME280;44185;47.844;8.966;2023-09-19T07:29:10;96222.63;;;16.20;100.00
58385;BME280;44185;47.844;8.966;2023-09-19T07:31:36;96220.63;;;16.30;100.00
58385;BME280;44185;47.844;8.966;2023-09-19T07:34:01;96215.41;;;16.45;100.00
58385;BME280;44185;47.844;8.966;2023-09-19T07:36:27;96221.38;;;16.64;100.00
58385;BME280;44185;47.844;8.966;2023-09-19T07:38:53;96224.69;;;16.75;100.00
58385;BME280;44185;47.844;8.966;2023-09-19T07:41:18;96226.75;;;17.05;100.00
58385;BME280;44185;47.844;8.966;2023-09-19T07:43:45;96223.31;;;16.96;100.00
58385;BME280;44185;47.844;8.966;2023-09-19T07:46:11;96214.72;;;16.68;100.00
58385;BME280;44185;47.844;8.966;2023-09-19T07:48:36;96229.88;;;16.76;100.00
58385;BME280;44185;47.844;8.966;2023-09-19T07:51:02;96223.78;;;16.99;100.00
58385;BME280;44185;47.844;8.966;2023-09-19T07:53:28;96233.25;;;17.19;100.00
58385;BME280;44185;47.844;8.966;2023-09-19T07:56:01;96238.25;;;17.22;100.00
58385;BME280;44185;47.844;8.966;2023-09-19T07:58:27;96238.56;;;17.27;100.00
58385;BME280;44185;47.844;8.966;2023-09-19T08:00:54;96236.25;;;17.16;100.00
58385;BME280;44185;47.844;8.966;2023-09-19T08:03:19;96231.81;;;16.91;100.00
58385;BME280;44185;47.844;8.966;2023-09-19T08:05:45;96229.47;;;16.96;100.00
58385;BME280;44185;47.844;8.966;2023-09-19T08:08:10;96231.75;;;17.08;100.00
58385;BME280;44185;47.844;8.966;2023-09-19T08:10:35;96237.53;;;17.28;100.00
58385;BME280;44185;47.844;8.966;2023-09-19T08:13:01;96240.03;;;17.62;100.00
58385;BME280;44185;47.844;8.966;2023-09-19T08:15:26;96244.38;;;17.63;100.00
58385;BME280;44185;47.844;8.966;2023-09-19T08:17:53;96260.84;;;17.51;100.00
58385;BME280;44185;47.844;8.966;2023-09-19T08:20:19;96247.88;;;17.87;100.00
58385;BME280;44185;47.844;8.966;2023-09-19T08:22:47;96252.84;;;17.75;100.00
58385;BME280;44185;47.844;8.966;2023-09-19T08:25:13;96259.59;;;17.62;100.00
58385;BME280;44185;47.844;8.966;2023-09-19T08:27:38;96261.50;;;17.77;100.00
58385;BME280;44185;47.844;8.966;2023-09-19T08:30:04;96260.31;;;18.03;100.00
58385;BME280;44185;47.844;8.966;2023-09-19T08:32:30;96265.91;;;18.17;100.00
58385;BME280;44185;47.844;8.966;2023-09-19T08:34:57;96264.72;;;18.19;100.00
58385;BME280;44185;47.844;8.966;2023-09-19T08:37:22;96259.88;;;18.23;100.00
58385;BME280;44185;47.844;8.966;2023-09-19T08:39:48;96271.44;;;18.39;100.00
58385;BME280;44185;47.844;8.966;2023-09-19T08:42:13;96269.22;;;18.19;100.00
58385;BME280;44185;47.844;8.966;2023-09-19T08:44:39;96266.28;;;17.90;100.00
58385;BME280;44185;47.844;8.966;2023-09-19T08:47:09;96267.81;;;17.84;100.00
58385;BME280;44185;47.844;8.966;2023-09-19T08:49:39;96269.66;;;17.84;100.00
58385;BME280;44185;47.844;8.966;2023-09-19T08:52:16;96265.69;;;17.79;100.00
58385;BME280;44185;47.844;8.966;2023-09-19T08:54:45;96275.53;;;18.03;100.00
58385;BME280;44185;47.844;8.966;2023-09-19T08:57:14;96272.09;;;18.17;100.00
58385;BME280;44185;47.844;8.966;2023-09-19T08:59:43;96269.13;;;18.12;100.00
58385;BME280;44185;47.844;8.966;2023-09-19T09:02:11;96269.53;;;18.00;100.00
58385;BME280;44185;47.844;8.966;2023-09-19T09:04:38;96267.47;;;17.87;99.83
58385;BME280;44185;47.844;8.966;2023-09-19T09:07:05;96275.38;;;17.81;100.00
58385;BME280;44185;47.844;8.966;2023-09-19T09:09:34;96268.00;;;17.83;100.00
58385;BME280;44185;47.844;8.966;2023-09-19T09:11:59;96276.31;;;17.88;100.00
58385;BME280;44185;47.844;8.966;2023-09-19T09:14:25;96272.75;;;17.96;100.00
58385;BME280;44185;47.844;8.966;2023-09-19T09:16:50;96278.41;;;18.01;100.00
58385;BME280;44185;47.844;8.966;2023-09-19T09:19:16;96275.91;;;17.99;98.66
58385;BME280;44185;47.844;8.966;2023-09-19T09:21:41;96278.75;;;17.98;97.46
58385;BME280;44185;47.844;8.966;2023-09-19T09:24:26;96274.09;;;17.92;97.45
58385;BME280;44185;47.844;8.966;2023-09-19T09:26:52;96273.00;;;17.86;99.18
58385;BME280;44185;47.844;8.966;2023-09-19T09:29:41;96278.91;;;18.05;97.71
58385;BME280;44185;47.844;8.966;2023-09-19T09:32:16;96274.75;;;18.26;98.36
58385;BME280;44185;47.844;8.966;2023-09-19T09:34:42;96273.34;;;18.30;95.20
58385;BME280;44185;47.844;8.966;2023-09-19T09:37:13;96276.88;;;18.30;95.52
58385;BME280;44185;47.844;8.966;2023-09-19T09:39:38;96281.72;;;18.50;94.95
58385;BME280;44185;47.844;8.966;2023-09-19T09:42:05;96273.59;;;18.59;95.37
58385;BME280;44185;47.844;8.966;2023-09-19T09:44:31;96282.19;;;18.69;96.11
58385;BME280;44185;47.844;8.966;2023-09-19T09:46:56;96279.16;;;18.57;93.31
58385;BME280;44185;47.844;8.966;2023-09-19T09:49:22;96282.66;;;18.58;94.77
58385;BME280;44185;47.844;8.966;2023-09-19T09:51:49;96274.88;;;18.48;94.13
58385;BME280;44185;47.844;8.966;2023-09-19T09:54:16;96274.78;;;18.56;94.72
58385;BME280;44185;47.844;8.966;2023-09-19T09:56:52;96269.34;;;18.49;94.15
58385;BME280;44185;47.844;8.966;2023-09-19T09:59:20;96277.19;;;18.66;92.19
58385;BME280;44185;47.844;8.966;2023-09-19T10:01:48;96270.66;;;18.84;91.33
58385;BME280;44185;47.844;8.966;2023-09-19T10:04:27;96273.53;;;18.97;88.25
58385;BME280;44185;47.844;8.966;2023-09-19T10:06:52;96277.41;;;18.79;87.92
58385;BME280;44185;47.844;8.966;2023-09-19T10:09:18;96268.44;;;18.72;87.22
58385;BME280;44185;47.844;8.966;2023-09-19T10:11:45;96271.03;;;18.81;89.48
58385;BME280;44185;47.844;8.966;2023-09-19T10:14:11;96270.75;;;18.75;87.55
58385;BME280;44185;47.844;8.966;2023-09-19T10:16:40;96275.75;;;18.94;89.55
58385;BME280;44185;47.844;8.966;2023-09-19T10:19:11;96276.47;;;18.87;88.41
58385;BME280;44185;47.844;8.966;2023-09-19T10:21:39;96276.13;;;18.90;87.11
58385;BME280;44185;47.844;8.966;2023-09-19T10:24:07;96276.88;;;18.84;81.58
58385;BME280;44185;47.844;8.966;2023-09-19T10:26:34;96275.84;;;18.70;80.60
58385;BME280;44185;47.844;8.966;2023-09-19T10:29:00;96280.78;;;18.58;85.55
58385;BME280;44185;47.844;8.966;2023-09-19T10:31:27;96283.38;;;18.51;86.71
58385;BME280;44185;47.844;8.966;2023-09-19T10:33:55;96293.25;;;18.51;85.85
58385;BME280;44185;47.844;8.966;2023-09-19T10:36:22;96291.63;;;18.50;83.51
58385;BME280;44185;47.844;8.966;2023-09-19T10:38:50;96288.75;;;18.51;82.64
58385;BME280;44185;47.844;8.966;2023-09-19T10:41:20;96275.00;;;18.70;83.18
58385;BME280;44185;47.844;8.966;2023-09-19T10:43:48;96281.66;;;18.74;83.00
58385;BME280;44185;47.844;8.966;2023-09-19T10:46:14;96286.28;;;18.65;83.30
58385;BME280;44185;47.844;8.966;2023-09-19T10:48:40;96273.59;;;18.59;82.81
58385;BME280;44185;47.844;8.966;2023-09-19T10:51:09;96280.00;;;18.88;82.78
58385;BME280;44185;47.844;8.966;2023-09-19T10:53:43;96278.69;;;19.14;84.93
58385;BME280;44185;47.844;8.966;2023-09-19T10:56:10;96276.31;;;19.19;81.92
58385;BME280;44185;47.844;8.966;2023-09-19T10:58:42;96272.84;;;19.19;78.29
58385;BME280;44185;47.844;8.966;2023-09-19T11:01:07;96269.44;;;19.17;79.48
58385;BME280;44185;47.844;8.966;2023-09-19T11:03:33;96268.41;;;19.48;79.99
58385;BME280;44185;47.844;8.966;2023-09-19T11:06:14;96266.88;;;19.39;75.45
58385;BME280;44185;47.844;8.966;2023-09-19T11:09:00;96267.75;;;19.61;77.96
58385;BME280;44185;47.844;8.966;2023-09-19T11:11:46;96264.94;;;19.70;73.97
58385;BME280;44185;47.844;8.966;2023-09-19T11:14:28;96257.78;;;19.99;76.31
58385;BME280;44185;47.844;8.966;2023-09-19T11:20:22;96259.06;;;20.25;74.42
58385;BME280;44185;47.844;8.966;2023-09-19T11:23:21;96258.53;;;20.30;72.27
58385;BME280;44185;47.844;8.966;2023-09-19T11:25:46;96262.09;;;20.37;72.33
58385;BME280;44185;47.844;8.966;2023-09-19T11:28:30;96263.31;;;20.34;72.47
58385;BME280;44185;47.844;8.966;2023-09-19T11:30:55;96252.13;;;20.09;71.73
58385;BME280;44185;47.844;8.966;2023-09-19T11:33:22;96261.34;;;20.21;71.35
58385;BME280;44185;47.844;8.966;2023-09-19T11:36:02;96257.94;;;20.34;72.40
58385;BME280;44185;47.844;8.966;2023-09-19T11:39:00;96252.66;;;20.48;70.15
58385;BME280;44185;47.844;8.966;2023-09-19T11:41:39;96244.25;;;20.29;70.06
58385;BME280;44185;47.844;8.966;2023-09-19T11:44:35;96250.75;;;20.20;69.92
58385;BME280;44185;47.844;8.966;2023-09-19T11:47:02;96245.41;;;20.20;69.73
58385;BME280;44185;47.844;8.966;2023-09-19T11:49:29;96236.13;;;20.22;68.31
58385;BME280;44185;47.844;8.966;2023-09-19T11:51:55;96242.31;;;20.23;68.26
58385;BME280;44185;47.844;8.966;2023-09-19T11:54:22;96232.66;;;20.29;70.72
58385;BME280;44185;47.844;8.966;2023-09-19T11:56:49;96237.03;;;20.30;72.46
58385;BME280;44185;47.844;8.966;2023-09-19T11:59:20;96230.81;;;20.29;72.97
58385;BME280;44185;47.844;8.966;2023-09-19T12:01:51;96231.16;;;20.48;71.44
58385;BME280;44185;47.844;8.966;2023-09-19T12:04:18;96229.22;;;20.35;68.28
58385;BME280;44185;47.844;8.966;2023-09-19T12:06:56;96223.38;;;20.31;70.01
58385;BME280;44185;47.844;8.966;2023-09-19T12:09:24;96227.19;;;20.44;68.94
58385;BME280;44185;47.844;8.966;2023-09-19T12:11:50;96218.97;;;20.23;70.76
58385;BME280;44185;47.844;8.966;2023-09-19T12:14:22;96215.16;;;20.33;70.81
58385;BME280;44185;47.844;8.966;2023-09-19T12:16:51;96221.19;;;20.42;68.45
58385;BME280;44185;47.844;8.966;2023-09-19T12:19:18;96217.13;;;20.53;69.60
58385;BME280;44185;47.844;8.966;2023-09-19T12:21:43;96216.25;;;20.45;68.52
58385;BME280;44185;47.844;8.966;2023-09-19T12:24:12;96213.19;;;20.49;68.69
58385;BME280;44185;47.844;8.966;2023-09-19T12:26:40;96214.69;;;20.58;68.37
58385;BME280;44185;47.844;8.966;2023-09-19T12:29:11;96215.16;;;20.69;67.94
58385;BME280;44185;47.844;8.966;2023-09-19T12:31:37;96210.09;;;20.94;68.89
58385;BME280;44185;47.844;8.966;2023-09-19T12:34:16;96206.13;;;20.48;66.61
58385;BME280;44185;47.844;8.966;2023-09-19T12:36:41;96212.31;;;20.77;69.74
58385;BME280;44185;47.844;8.966;2023-09-19T12:39:07;96207.59;;;20.50;69.76
58385;BME280;44185;47.844;8.966;2023-09-19T12:41:33;96209.84;;;20.18;69.87
58385;BME280;44185;47.844;8.966;2023-09-19T12:44:00;96210.16;;;20.30;69.92
58385;BME280;44185;47.844;8.966;2023-09-19T12:46:26;96199.09;;;20.18;69.28
58385;BME280;44185;47.844;8.966;2023-09-19T12:49:16;96198.44;;;20.38;71.54
58385;BME280;44185;47.844;8.966;2023-09-19T12:51:41;96199.69;;;20.42;70.34
58385;BME280;44185;47.844;8.966;2023-09-19T12:54:07;96191.84;;;20.47;71.65
58385;BME280;44185;47.844;8.966;2023-09-19T12:56:39;96189.66;;;20.58;73.37
58385;BME280;44185;47.844;8.966;2023-09-19T12:59:06;96182.03;;;20.61;74.43